This is the latest recevied weather packets stored in our database for station/object OH2NJR. If no packets are shown the sender has not sent any weather packets the latest 10 day(s).
| Time | Temp. | Humidity | Pressure | Rain* | Wind** | Luminosity | Snow |
|---|---|---|---|---|---|---|---|
| 1777828158 | 10.56° C | 72% | 1007.4 hPa | 0 mm | - | - | - |
| 1777827063 | 12.22° C | 67% | 1007.6 hPa | 0 mm | - | - | - |
| 1777826018 | 12.22° C | 68% | 1007.6 hPa | 0 mm | - | - | - |
| 1777825062 | 11.11° C | 70% | 1007.6 hPa | 0 mm | - | - | - |
| 1777823908 | 10.56° C | 71% | 1007.6 hPa | 0 mm | - | - | - |
| 1777822750 | 10.56° C | 71% | 1007.7 hPa | 0 mm | - | - | - |
| 1777822743 | 10.56° C | 71% | 1007.7 hPa | 0 mm | - | - | - |
| 1777821658 | 10.56° C | 73% | 1007.8 hPa | 0 mm | - | - | - |
| 1777820650 | 9.44° C | 75% | 1007.7 hPa | 0 mm | - | - | - |
| 1777819478 | 9.44° C | 77% | 1007.7 hPa | 0 mm | - | - | - |
| 1777818478 | 9.44° C | 75% | 1007.7 hPa | 0 mm | - | - | - |
| 1777817280 | 11.11° C | 69% | 1007.7 hPa | 0 mm | - | - | - |
| 1777816202 | 11.11° C | 69% | 1007.8 hPa | 0 mm | - | - | - |
| 1777815048 | 12.22° C | 66% | 1007.7 hPa | 0 mm | - | - | - |
| 1777813974 | 11.11° C | - | - | 0 mm | - | - | - |
| 1777813968 | 11.11° C | 69% | 1007.7 hPa | 0 mm | - | - | - |
| 1777813010 | 12.22° C | 63% | 1007.9 hPa | 0 mm | - | - | - |
| 1777811868 | 12.22° C | 61% | 1008.1 hPa | 0 mm | - | - | - |
| 1777810748 | 12.22° C | 66% | 1008 hPa | 0 mm | - | - | - |
| 1777809718 | 11.67° C | 66% | 1007.8 hPa | 0 mm | - | - | - |
| 1777808578 | 11.11° C | 67% | 1007.9 hPa | 0 mm | - | - | - |
| 1777807558 | 12.22° C | 65% | 1007.8 hPa | 0 mm | - | - | - |
| 1777806553 | 12.22° C | 64% | 1007.8 hPa | 0 mm | - | - | - |
| 1777805583 | 12.22° C | 66% | 1007.8 hPa | 0 mm | - | - | - |
| 1777804513 | 12.22° C | 66% | 1007.8 hPa | 0 mm | - | - | - |
* Rain latest hour (hover to see other rain measurements)
** Current wind speed in m/s (hover to see current wind gust speed)